Time;durP1;ratioP1;P1;durP2;ratioP2;P2;SDS_P1;SDS_P2;PMS_P1;PMS_P2;Temp;Humidity;BMP_temperature;BMP_pressure;BME280_temperature;BME280_humidity;BME280_pressure;Samples;Min_cycle;Max_cycle;Signal;HPM_P1;HPM_P2
2021/08/31 00:00:15;;;;;;;5.70;3.50;;;;;;;13.92;75.75;102617.13;4859687;29;20037;-88
2021/08/31 00:02:40;;;;;;;5.13;3.28;;;;;;;13.94;75.46;102606.97;4886319;29;20029;-89
2021/08/31 00:05:08;;;;;;;4.85;3.00;;;;;;;13.82;75.07;102582.03;4862490;29;20495;-89
2021/08/31 00:07:33;;;;;;;5.68;3.22;;;;;;;13.97;74.93;102609.41;4873811;29;20025;-89
2021/08/31 00:09:59;;;;;;;6.22;2.92;;;;;;;13.82;74.97;102587.44;4874098;29;20107;-88
2021/08/31 00:12:25;;;;;;;6.07;3.08;;;;;;;13.93;74.44;102599.03;4880374;29;20021;-90
2021/08/31 00:14:50;;;;;;;5.30;3.30;;;;;;;14.01;74.43;102610.78;4865423;29;20056;-89
2021/08/31 00:17:17;;;;;;;4.28;2.90;;;;;;;14.06;74.37;102616.59;4880978;29;20035;-89
2021/08/31 00:19:46;;;;;;;4.97;2.65;;;;;;;14.05;74.45;102617.59;4850078;29;20105;-91
2021/08/31 00:22:12;;;;;;;4.65;2.75;;;;;;;14.03;74.17;102616.91;4861195;29;20164;-88
2021/08/31 00:24:39;;;;;;;4.63;2.72;;;;;;;14.02;74.37;102615.19;4870967;29;20115;-88
2021/08/31 00:27:07;;;;;;;4.50;2.85;;;;;;;14.13;74.42;102630.38;4873344;29;20085;-89
2021/08/31 00:29:34;;;;;;;3.92;2.53;;;;;;;14.08;74.39;102629.97;4859568;29;20165;-89
2021/08/31 00:31:59;;;;;;;5.53;2.83;;;;;;;14.04;74.50;102618.59;4872118;29;20044;-90
2021/08/31 00:34:25;;;;;;;4.38;2.65;;;;;;;13.92;74.30;102606.31;4890225;29;20032;-89
2021/08/31 00:36:51;;;;;;;5.00;2.45;;;;;;;13.95;74.64;102621.38;4868727;29;20183;-89
2021/08/31 00:39:16;;;;;;;4.88;2.80;;;;;;;13.94;75.09;102623.22;4863584;29;20051;-89
2021/08/31 00:41:42;;;;;;;4.82;2.70;;;;;;;13.95;74.91;102624.94;4860273;29;20025;-89
2021/08/31 00:44:27;;;;;;;6.43;3.22;;;;;;;13.91;74.72;102610.00;4859237;29;20020;-89
2021/08/31 00:46:54;;;;;;;5.45;3.05;;;;;;;13.87;74.95;102600.50;4873274;29;20032;-88
2021/08/31 00:49:19;;;;;;;4.65;2.95;;;;;;;13.91;74.92;102610.00;4858445;29;20044;-90
2021/08/31 00:51:48;;;;;;;5.60;2.92;;;;;;;13.88;74.97;102604.06;4858995;29;20401;-88
2021/08/31 00:54:17;;;;;;;6.38;3.85;;;;;;;13.87;74.89;102603.22;4847361;29;22300;-89
2021/08/31 00:56:45;;;;;;;4.80;3.30;;;;;;;13.93;74.92;102621.53;4845798;29;20025;-89
2021/08/31 00:59:11;;;;;;;8.50;4.63;;;;;;;13.86;75.29;102612.31;4870349;29;20032;-89
2021/08/31 01:01:37;;;;;;;7.18;4.45;;;;;;;13.87;75.09;102615.88;4856976;29;20043;-88
2021/08/31 01:04:03;;;;;;;6.38;4.30;;;;;;;13.80;75.57;102615.63;4858926;29;20109;-89
2021/08/31 01:06:29;;;;;;;7.35;4.22;;;;;;;13.80;75.52;102607.50;4845447;29;22371;-89
2021/08/31 01:08:55;;;;;;;8.52;4.40;;;;;;;13.82;75.44;102619.88;4868067;29;20115;-89
2021/08/31 01:11:21;;;;;;;8.23;4.80;;;;;;;13.84;75.75;102626.00;4865468;29;20036;-89
2021/08/31 01:13:47;;;;;;;6.32;4.20;;;;;;;13.84;75.76;102628.69;4863090;29;20115;-88
2021/08/31 01:16:12;;;;;;;8.20;4.78;;;;;;;13.90;75.61;102629.09;4861226;29;20630;-88
2021/08/31 01:18:38;;;;;;;10.02;5.30;;;;;;;13.92;75.96;102640.59;4877488;29;20025;-90
2021/08/31 01:21:03;;;;;;;8.93;5.38;;;;;;;13.84;75.85;102630.56;4890033;29;20031;-88
2021/08/31 01:23:30;;;;;;;10.68;6.38;;;;;;;13.81;75.93;102610.09;4847606;29;20127;-89
2021/08/31 01:25:57;;;;;;;9.68;4.50;;;;;;;13.90;75.86;102629.94;4880019;29;20421;-88
2021/08/31 01:28:27;;;;;;;7.78;5.13;;;;;;;14.01;75.50;102637.00;4861605;29;20033;-88
2021/08/31 01:30:53;;;;;;;7.93;4.50;;;;;;;13.95;75.79;102633.03;4877475;29;20040;-89
2021/08/31 01:33:20;;;;;;;8.93;4.32;;;;;;;13.95;75.46;102633.03;4863450;29;20038;-88
2021/08/31 01:35:46;;;;;;;6.43;4.50;;;;;;;13.95;75.54;102624.94;4862091;29;20456;-88
2021/08/31 01:38:12;;;;;;;9.40;4.25;;;;;;;13.97;75.91;102630.16;4861681;29;20056;-88
2021/08/31 01:40:38;;;;;;;6.25;3.78;;;;;;;14.01;75.96;102642.41;4847174;29;20059;-88
2021/08/31 01:43:03;;;;;;;8.75;4.13;;;;;;;13.87;76.69;102632.97;4862345;29;20032;-88
2021/08/31 01:45:44;;;;;;;6.82;4.07;;;;;;;13.91;76.80;102625.38;4852740;29;20442;-89
2021/08/31 01:48:10;;;;;;;7.88;3.80;;;;;;;13.82;76.92;102638.81;4878501;29;20496;-89
2021/08/31 01:50:35;;;;;;;7.55;3.97;;;;;;;13.75;77.05;102640.41;4846103;29;20039;-88
2021/08/31 01:53:01;;;;;;;8.18;4.05;;;;;;;13.76;77.41;102628.59;4873186;29;20036;-89
2021/08/31 01:55:26;;;;;;;11.85;5.00;;;;;;;13.78;77.55;102633.84;4878811;29;20548;-88
2021/08/31 01:57:52;;;;;;;12.40;4.72;;;;;;;13.78;77.98;102641.97;4860093;29;20024;-89
2021/08/31 02:00:18;;;;;;;9.63;3.75;;;;;;;13.68;77.80;102615.00;4862866;29;20036;-89
2021/08/31 02:02:43;;;;;;;9.55;4.32;;;;;;;13.57;78.02;102601.66;4878457;29;20076;-88
2021/08/31 02:05:09;;;;;;;15.10;5.25;;;;;;;13.84;78.13;102626.00;4842508;29;20033;-89
2021/08/31 02:07:35;;;;;;;21.23;6.05;;;;;;;13.86;78.32;102625.81;4861574;29;20411;-88
2021/08/31 02:10:01;;;;;;;10.23;4.32;;;;;;;13.92;77.96;102633.34;4861511;29;20036;-89
2021/08/31 02:12:26;;;;;;;8.02;4.28;;;;;;;13.91;77.61;102630.78;4879501;29;20044;-89
2021/08/31 02:14:52;;;;;;;5.82;3.70;;;;;;;13.94;77.42;102639.44;4880014;29;20127;-89
2021/08/31 02:17:17;;;;;;;7.40;3.55;;;;;;;13.87;77.56;102624.00;4885456;29;20048;-89
2021/08/31 02:19:43;;;;;;;6.05;3.58;;;;;;;13.86;77.96;102628.53;4857219;29;20031;-88
2021/08/31 02:22:09;;;;;;;5.15;3.30;;;;;;;13.92;77.91;102627.94;4848389;29;20036;-87
2021/08/31 02:24:34;;;;;;;6.45;3.08;;;;;;;13.78;77.88;102623.03;4883330;29;20040;-88
2021/08/31 02:27:02;;;;;;;5.95;3.40;;;;;;;13.91;77.56;102637.03;4865230;29;20031;-89
2021/08/31 02:29:28;;;;;;;5.88;3.05;;;;;;;13.82;77.57;102628.00;4851847;29;20033;-89
2021/08/31 02:31:53;;;;;;;6.32;3.40;;;;;;;13.82;78.08;102629.84;4851873;29;20035;-90
2021/08/31 02:34:19;;;;;;;6.15;3.15;;;;;;;13.80;77.91;102634.56;4851747;29;20092;-90
2021/08/31 02:36:44;;;;;;;6.63;3.13;;;;;;;13.80;77.78;102639.97;4867178;29;20029;-89
2021/08/31 02:39:10;;;;;;;7.30;3.28;;;;;;;13.73;77.94;102630.75;4851832;29;20403;-90
2021/08/31 02:41:36;;;;;;;7.13;3.42;;;;;;;13.73;78.12;102633.44;4851685;29;20036;-89
2021/08/31 02:44:01;;;;;;;10.20;3.67;;;;;;;13.74;77.86;102641.41;4846924;29;20092;-89
2021/08/31 02:46:27;;;;;;;8.55;3.95;;;;;;;13.76;77.63;102638.53;4880414;29;20024;-89
2021/08/31 02:48:53;;;;;;;7.68;3.53;;;;;;;13.77;77.48;102640.28;4885679;29;20033;-89
2021/08/31 02:51:18;;;;;;;8.30;3.30;;;;;;;13.74;77.61;102629.75;4878568;29;20028;-89
2021/08/31 02:53:44;;;;;;;5.53;3.40;;;;;;;13.75;77.68;102626.03;4879322;29;20504;-88
2021/08/31 02:56:10;;;;;;;9.60;4.20;;;;;;;13.81;77.65;102641.66;4877378;29;20484;-87
2021/08/31 02:58:35;;;;;;;19.67;5.05;;;;;;;13.65;77.29;102615.28;4871114;29;20031;-89
2021/08/31 03:01:05;;;;;;;9.88;4.15;;;;;;;13.75;77.96;102626.03;4863985;29;20032;-90
2021/08/31 03:03:33;;;;;;;11.27;5.18;;;;;;;13.74;77.91;102629.75;4867337;29;20059;-89
2021/08/31 03:05:59;;;;;;;13.55;4.80;;;;;;;13.76;78.02;102636.72;4866570;29;20507;-90
2021/08/31 03:08:25;;;;;;;11.80;3.80;;;;;;;13.74;78.27;102640.56;4851099;29;20028;-90
2021/08/31 03:10:51;;;;;;;7.95;3.15;;;;;;;13.60;78.43;102613.03;4866545;29;20028;-92
2021/08/31 03:13:16;;;;;;;7.35;3.65;;;;;;;13.74;78.13;102635.16;4866502;29;20080;-89
2021/08/31 03:15:42;;;;;;;6.00;3.53;;;;;;;13.72;78.33;102629.91;4850882;29;20051;-90
2021/08/31 03:18:08;;;;;;;6.65;2.97;;;;;;;13.74;78.80;102636.00;4866440;29;20029;-90
2021/08/31 03:20:33;;;;;;;5.70;3.40;;;;;;;13.68;78.33;102630.34;4866313;29;20032;-90
2021/08/31 03:22:59;;;;;;;5.75;3.28;;;;;;;13.67;78.75;102631.34;4866283;29;20025;-89
2021/08/31 03:25:25;;;;;;;8.70;3.28;;;;;;;13.63;78.44;102620.00;4881738;29;20533;-89
2021/08/31 03:27:50;;;;;;;6.38;3.47;;;;;;;13.65;79.19;102631.50;4866162;29;20024;-89
2021/08/31 03:30:17;;;;;;;8.85;3.80;;;;;;;13.70;78.64;102633.75;4865292;29;20517;-90
2021/08/31 03:32:43;;;;;;;6.45;3.15;;;;;;;13.71;78.75;102635.47;4865969;29;20488;-91
2021/08/31 03:35:10;;;;;;;5.57;3.05;;;;;;;13.69;78.21;102637.47;4865887;29;20120;-89
2021/08/31 03:37:36;;;;;;;6.55;3.63;;;;;;;13.59;78.44;102630.25;4848269;29;20032;-89
2021/08/31 03:40:02;;;;;;;6.80;3.42;;;;;;;13.66;78.52;102643.19;4876673;29;20052;-89
2021/08/31 03:42:27;;;;;;;4.95;3.30;;;;;;;13.56;78.64;102625.13;4852987;29;20111;-89
2021/08/31 03:44:53;;;;;;;6.25;3.15;;;;;;;13.67;78.16;102647.56;4861960;29;20033;-89
2021/08/31 03:47:19;;;;;;;6.57;3.33;;;;;;;13.68;78.12;102650.13;4880397;29;20028;-89
2021/08/31 03:49:44;;;;;;;5.22;3.38;;;;;;;13.62;78.67;102631.78;4870076;29;20913;-89
2021/08/31 03:52:10;;;;;;;5.82;3.17;;;;;;;13.64;78.67;102638.75;4861496;29;20024;-89
2021/08/31 03:54:36;;;;;;;5.70;2.85;;;;;;;13.63;78.32;102637.06;4838208;29;20029;-90
2021/08/31 03:57:02;;;;;;;6.38;3.05;;;;;;;13.67;78.59;102651.13;4864778;29;20025;-89
2021/08/31 03:59:46;;;;;;;7.20;2.83;;;;;;;13.61;78.78;102640.91;4870729;29;20032;-89
2021/08/31 04:02:12;;;;;;;4.72;2.80;;;;;;;13.56;79.13;102641.34;4861699;29;20040;-89
2021/08/31 04:04:37;;;;;;;8.07;3.30;;;;;;;13.55;79.66;102638.81;4849086;29;20036;-89
2021/08/31 04:07:03;;;;;;;5.40;2.65;;;;;;;13.48;80.00;102635.84;4862403;29;20115;-88
2021/08/31 04:09:29;;;;;;;6.55;3.28;;;;;;;13.52;80.33;102637.28;4860482;29;20029;-89
2021/08/31 04:11:54;;;;;;;4.75;2.88;;;;;;;13.51;79.98;102630.16;4849104;29;20540;-89
2021/08/31 04:14:20;;;;;;;4.28;2.63;;;;;;;13.60;79.85;102650.00;4846061;29;20036;-89
2021/08/31 04:16:46;;;;;;;4.65;3.08;;;;;;;13.56;79.25;102632.41;4855314;29;20453;-89
2021/08/31 04:19:11;;;;;;;6.43;2.97;;;;;;;13.48;80.06;102630.44;4867847;29;20516;-89
2021/08/31 04:21:37;;;;;;;5.43;2.85;;;;;;;13.49;80.37;102636.69;4861061;29;20036;-88
2021/08/31 04:24:03;;;;;;;5.68;2.70;;;;;;;13.56;80.26;102635.94;4865490;29;20036;-89
2021/08/31 04:26:30;;;;;;;4.32;2.65;;;;;;;13.54;80.54;102634.41;4853226;29;20131;-88
2021/08/31 04:29:15;;;;;;;4.68;2.92;;;;;;;13.53;80.57;102641.66;4867679;29;20112;-89
2021/08/31 04:31:41;;;;;;;4.22;2.60;;;;;;;13.48;80.50;102641.25;4880147;29;20092;-89
2021/08/31 04:34:06;;;;;;;4.05;2.42;;;;;;;13.48;80.12;102641.25;4843642;29;20025;-89
2021/08/31 04:36:32;;;;;;;3.95;2.45;;;;;;;13.48;79.89;102633.16;4866660;29;20036;-89
2021/08/31 04:38:58;;;;;;;4.30;2.47;;;;;;;13.52;79.30;102642.69;4892333;29;20027;-89
2021/08/31 04:41:23;;;;;;;7.57;2.80;;;;;;;13.51;79.49;102649.06;4877633;29;20032;-89
2021/08/31 04:43:49;;;;;;;5.47;2.45;;;;;;;13.54;79.18;102646.06;4861417;29;20059;-90
2021/08/31 04:46:14;;;;;;;5.40;2.95;;;;;;;13.47;79.25;102636.88;4865640;29;20492;-87
2021/08/31 04:48:40;;;;;;;3.45;2.20;;;;;;;13.52;79.39;102656.19;4880817;29;20025;-88
2021/08/31 04:51:06;;;;;;;4.90;2.72;;;;;;;13.41;79.53;102650.94;4865876;29;20052;-87
2021/08/31 04:53:31;;;;;;;4.93;2.40;;;;;;;13.42;80.09;102649.97;4864290;29;20533;-88
2021/08/31 04:55:57;;;;;;;5.15;2.72;;;;;;;13.26;80.17;102634.38;4873282;29;20991;-87
2021/08/31 04:58:23;;;;;;;5.97;2.53;;;;;;;13.19;80.14;102614.31;4850232;29;20021;-87
2021/08/31 05:00:48;;;;;;;4.78;2.80;;;;;;;13.44;80.20;102661.47;4882188;29;20051;-88
2021/08/31 05:03:14;;;;;;;4.10;2.60;;;;;;;13.44;80.42;102660.59;4869062;29;20025;-88
2021/08/31 05:05:41;;;;;;;4.40;2.60;;;;;;;13.39;80.80;102661.94;4863442;29;20039;-88
2021/08/31 05:08:07;;;;;;;4.72;2.90;;;;;;;13.41;80.71;102659.06;4875822;29;20040;-87
2021/08/31 05:10:33;;;;;;;3.72;2.45;;;;;;;13.43;80.74;102667.03;4858539;29;20036;-88
2021/08/31 05:12:58;;;;;;;4.63;2.80;;;;;;;13.28;81.02;102645.88;4879817;29;20028;-89
2021/08/31 05:15:24;;;;;;;4.55;2.45;;;;;;;13.38;80.84;102656.66;4868502;29;20036;-90
2021/08/31 05:17:49;;;;;;;3.47;2.45;;;;;;;13.40;80.97;102670.88;4862134;29;20329;-89
2021/08/31 05:20:17;;;;;;;5.30;3.05;;;;;;;13.36;81.17;102664.06;4858634;29;20067;-89
2021/08/31 05:22:43;;;;;;;5.13;2.88;;;;;;;13.36;81.43;102664.06;4876334;29;20032;-89
2021/08/31 05:25:09;;;;;;;4.38;3.00;;;;;;;13.43;81.71;102669.72;4862889;29;20084;-88
2021/08/31 05:27:34;;;;;;;4.40;3.08;;;;;;;13.33;81.48;102664.34;4881162;29;20036;-89
2021/08/31 05:30:00;;;;;;;4.60;2.63;;;;;;;13.31;81.94;102660.94;4863578;29;20140;-87
2021/08/31 05:32:26;;;;;;;5.65;2.80;;;;;;;13.28;81.63;102650.44;4893700;29;20488;-89
2021/08/31 05:34:51;;;;;;;4.18;2.63;;;;;;;13.34;81.64;102658.81;4864546;29;20039;-89
2021/08/31 05:37:17;;;;;;;4.40;2.70;;;;;;;13.39;81.99;102680.00;4866732;29;20056;-88
2021/08/31 05:39:44;;;;;;;4.00;2.47;;;;;;;13.28;82.07;102653.13;4893610;29;20032;-89
2021/08/31 05:42:10;;;;;;;6.95;3.13;;;;;;;13.37;82.41;102672.03;4869996;29;20036;-89
2021/08/31 05:44:38;;;;;;;4.93;3.10;;;;;;;13.25;82.60;102658.81;4870825;29;20032;-89
2021/08/31 05:47:05;;;;;;;5.43;2.92;;;;;;;13.23;83.06;102658.09;4870634;29;20028;-90
2021/08/31 05:49:31;;;;;;;5.40;2.80;;;;;;;13.22;82.80;102664.50;4868899;29;20032;-89
2021/08/31 05:52:00;;;;;;;4.40;2.60;;;;;;;13.20;83.34;102660.09;4879480;29;20476;-88
2021/08/31 05:54:26;;;;;;;4.43;3.00;;;;;;;13.16;83.29;102650.59;4867508;29;20107;-89
2021/08/31 05:56:52;;;;;;;4.63;2.40;;;;;;;13.19;83.65;102666.50;4873529;29;20041;-87
2021/08/31 05:59:18;;;;;;;4.85;2.80;;;;;;;13.10;83.70;102651.19;4862119;29;20043;-88
2021/08/31 06:01:44;;;;;;;4.30;2.60;;;;;;;13.19;83.63;102671.03;4863824;29;20389;-88
2021/08/31 06:04:11;;;;;;;5.10;3.20;;;;;;;13.23;83.73;102677.00;4877893;29;20226;-88
2021/08/31 06:06:37;;;;;;;5.18;3.00;;;;;;;13.24;83.76;102673.31;4882328;29;20121;-87
2021/08/31 06:09:05;;;;;;;4.78;2.38;;;;;;;13.20;83.78;102672.75;4877782;29;20033;-89
2021/08/31 06:11:35;;;;;;;7.03;3.03;;;;;;;13.20;84.08;102668.22;4862329;29;20098;-88
2021/08/31 06:14:01;;;;;;;6.15;3.13;;;;;;;13.18;84.28;102667.50;4876929;29;20044;-88
2021/08/31 06:16:26;;;;;;;9.48;3.10;;;;;;;13.23;84.08;102663.50;4864503;29;20028;-88
2021/08/31 06:18:52;;;;;;;5.15;3.25;;;;;;;13.31;84.25;102677.16;4848635;29;20037;-88
2021/08/31 06:21:17;;;;;;;4.25;3.08;;;;;;;13.25;84.14;102670.44;4863302;29;20028;-87
2021/08/31 06:23:43;;;;;;;10.45;3.90;;;;;;;13.33;84.40;102676.00;4847318;29;20044;-87
2021/08/31 06:26:09;;;;;;;6.95;3.75;;;;;;;13.33;84.26;102676.00;4862969;29;20028;-88
2021/08/31 06:28:34;;;;;;;6.55;3.65;;;;;;;13.30;84.74;102672.75;4843727;29;20059;-88
2021/08/31 06:31:00;;;;;;;7.70;3.80;;;;;;;13.32;85.07;102685.13;4862350;29;20024;-88
2021/08/31 06:33:26;;;;;;;6.63;3.78;;;;;;;13.26;85.00;102674.00;4864464;29;20118;-87
2021/08/31 06:35:52;;;;;;;6.13;3.85;;;;;;;13.29;85.06;102679.16;4863445;29;20096;-88
2021/08/31 06:38:18;;;;;;;6.72;3.85;;;;;;;13.36;85.14;102677.56;4878462;29;20035;-87
2021/08/31 06:40:45;;;;;;;6.93;3.90;;;;;;;13.42;85.35;102690.50;4833554;29;20045;-87
2021/08/31 06:43:10;;;;;;;6.97;3.92;;;;;;;13.36;85.62;102685.66;4863494;29;20107;-88
2021/08/31 06:45:36;;;;;;;5.97;3.75;;;;;;;13.40;85.74;102685.22;4862857;29;20024;-87
2021/08/31 06:48:02;;;;;;;7.82;4.35;;;;;;;13.40;85.68;102681.69;4860689;29;20029;-88
2021/08/31 06:50:29;;;;;;;6.55;4.10;;;;;;;13.44;85.58;102687.63;4862788;29;20035;-88
2021/08/31 06:52:55;;;;;;;8.52;4.78;;;;;;;13.46;85.82;102685.63;4849426;29;20037;-87
2021/08/31 06:55:20;;;;;;;7.90;4.38;;;;;;;13.52;85.96;102701.25;4862492;29;20059;-88
2021/08/31 06:57:46;;;;;;;8.57;4.10;;;;;;;13.55;85.57;102691.03;4863004;29;20511;-88
2021/08/31 07:00:12;;;;;;;7.45;4.30;;;;;;;13.51;85.73;102670.69;4878457;29;20020;-88
2021/08/31 07:02:38;;;;;;;8.05;4.78;;;;;;;13.60;85.64;102685.16;4863872;29;20067;-88
2021/08/31 07:05:05;;;;;;;9.60;4.80;;;;;;;13.66;85.60;102697.25;4863168;29;20016;-89
2021/08/31 07:07:30;;;;;;;6.30;4.63;;;;;;;13.44;85.57;102656.06;4879228;29;20381;-89
2021/08/31 07:10:01;;;;;;;7.60;4.40;;;;;;;13.71;85.51;102700.34;4876124;29;20036;-89
2021/08/31 07:12:27;;;;;;;6.47;4.05;;;;;;;13.70;85.37;102687.81;4864368;29;20075;-89
2021/08/31 07:14:53;;;;;;;9.25;4.50;;;;;;;13.70;85.59;102687.81;4854246;29;20037;-89
2021/08/31 07:17:20;;;;;;;10.82;4.63;;;;;;;13.76;85.50;102700.72;4862142;29;20037;-89
2021/08/31 07:19:47;;;;;;;8.40;5.13;;;;;;;13.81;85.67;102703.84;4876117;29;20029;-88
2021/08/31 07:22:13;;;;;;;9.10;5.60;;;;;;;13.83;85.63;102697.28;4846794;29;20396;-89
2021/08/31 07:24:39;;;;;;;7.43;5.05;;;;;;;13.93;85.41;102701.81;4871272;29;20056;-89
2021/08/31 07:27:05;;;;;;;10.77;6.50;;;;;;;13.98;85.58;102691.38;4893450;29;20036;-88
2021/08/31 07:29:30;;;;;;;11.88;5.50;;;;;;;14.02;85.09;102699.03;4859358;29;20032;-88
2021/08/31 07:31:56;;;;;;;9.93;5.25;;;;;;;14.06;85.22;102700.44;4887109;29;20028;-89
2021/08/31 07:34:22;;;;;;;9.05;4.47;;;;;;;14.15;85.08;102700.53;4856635;29;20083;-89
2021/08/31 07:36:47;;;;;;;8.95;5.80;;;;;;;14.16;85.30;102697.69;4869738;29;20073;-89
2021/08/31 07:39:14;;;;;;;8.88;5.20;;;;;;;14.26;85.01;102705.72;4878592;29;20056;-88
2021/08/31 07:41:39;;;;;;;6.72;4.57;;;;;;;14.34;84.87;102707.66;4863132;29;20111;-89
2021/08/31 07:44:05;;;;;;;9.02;5.30;;;;;;;14.38;84.61;102717.19;4859897;29;20117;-88
2021/08/31 07:46:31;;;;;;;9.35;4.88;;;;;;;14.47;84.81;102719.84;4879264;29;20420;-89
2021/08/31 07:48:58;;;;;;;10.02;4.80;;;;;;;14.54;84.41;102713.84;4866340;29;20121;-89
2021/08/31 07:51:24;;;;;;;9.02;5.80;;;;;;;14.49;84.28;102698.00;4889661;29;20040;-89
2021/08/31 07:53:49;;;;;;;9.65;6.25;;;;;;;14.45;84.00;102689.38;4862697;29;20396;-90
2021/08/31 07:56:15;;;;;;;10.65;6.50;;;;;;;14.46;84.28;102690.22;4869089;29;20036;-89
2021/08/31 07:58:41;;;;;;;7.57;5.55;;;;;;;14.62;83.96;102717.47;4864210;29;20027;-89
2021/08/31 08:01:06;;;;;;;9.52;4.65;;;;;;;14.68;83.83;102721.41;4848016;29;20040;-89
2021/08/31 08:04:13;;;;;;;7.78;5.18;;;;;;;14.54;83.84;102706.56;4862746;29;20032;-89
2021/08/31 08:06:43;;;;;;;11.90;5.88;;;;;;;14.63;84.05;102719.19;4862249;29;20768;-88
2021/08/31 08:09:09;;;;;;;10.75;5.18;;;;;;;14.68;83.76;102722.25;4857204;29;20041;-90
2021/08/31 08:11:35;;;;;;;7.60;5.18;;;;;;;14.68;83.35;102710.56;4862916;29;20029;-89
2021/08/31 08:14:00;;;;;;;9.35;5.03;;;;;;;14.69;83.55;102720.41;4880440;29;20027;-87
2021/08/31 08:16:26;;;;;;;9.05;4.88;;;;;;;14.49;83.91;102682.63;4864459;29;20032;-89
2021/08/31 08:18:52;;;;;;;8.77;5.10;;;;;;;14.73;84.12;102719.94;4858575;29;20036;-90
2021/08/31 08:21:18;;;;;;;9.23;4.93;;;;;;;14.73;84.11;102714.50;4876352;29;20547;-90
2021/08/31 08:23:55;;;;;;;9.27;4.22;;;;;;;14.74;83.79;102709.97;4854700;29;20035;-88
2021/08/31 08:26:45;;;;;;;7.40;4.57;;;;;;;14.83;83.37;102719.84;4866036;29;20049;-89
2021/08/31 08:29:10;;;;;;;6.88;4.28;;;;;;;14.85;83.29;102706.16;4855806;29;20040;-89
2021/08/31 08:31:46;;;;;;;8.38;5.03;;;;;;;14.92;82.90;102718.94;4883339;29;20092;-89
2021/08/31 08:34:14;;;;;;;7.70;4.90;;;;;;;14.96;82.99;102719.47;4862892;29;20160;-89
2021/08/31 08:36:40;;;;;;;7.53;3.88;;;;;;;14.97;82.93;102723.84;4866096;29;20471;-89
2021/08/31 08:39:05;;;;;;;9.98;4.30;;;;;;;15.02;82.94;102729.66;4876190;29;20029;-89
2021/08/31 08:41:31;;;;;;;14.52;6.13;;;;;;;15.07;82.84;102729.19;4841460;29;20025;-89
2021/08/31 08:43:59;;;;;;;12.00;4.35;;;;;;;15.09;82.56;102728.03;4847584;29;20029;-89
2021/08/31 08:46:25;;;;;;;6.82;4.40;;;;;;;15.09;82.29;102708.22;4878119;29;20609;-89
2021/08/31 08:48:51;;;;;;;9.20;4.80;;;;;;;15.24;82.17;102739.16;4868995;29;20033;-88
2021/08/31 08:51:17;;;;;;;10.05;4.70;;;;;;;15.24;82.06;102741.88;4838235;29;20029;-89
2021/08/31 08:53:42;;;;;;;8.05;4.38;;;;;;;15.18;82.11;102723.50;4862003;29;20493;-88
2021/08/31 08:56:08;;;;;;;9.55;4.65;;;;;;;15.38;82.04;102746.69;4871975;29;20524;-88
2021/08/31 08:58:34;;;;;;;8.10;4.20;;;;;;;15.32;81.55;102731.09;4889520;29;20025;-88
2021/08/31 09:01:11;;;;;;;9.88;4.85;;;;;;;15.41;81.08;102750.09;4869422;29;20055;-88
2021/08/31 09:03:42;;;;;;;8.80;4.13;;;;;;;15.50;81.18;102763.53;4859788;29;20043;-88
2021/08/31 09:06:13;;;;;;;10.55;5.00;;;;;;;15.58;81.42;102768.16;4877755;29;20029;-87
2021/08/31 09:08:59;;;;;;;7.32;5.18;;;;;;;15.68;81.12;102757.22;4885514;29;20116;-88
2021/08/31 09:11:33;;;;;;;8.15;4.82;;;;;;;15.76;80.67;102760.00;4856917;29;20029;-88
2021/08/31 09:14:23;;;;;;;8.07;4.93;;;;;;;15.69;80.45;102748.97;4875262;29;20088;-89
2021/08/31 09:17:08;;;;;;;7.97;4.95;;;;;;;15.69;80.37;102767.94;4862322;29;20564;-88
2021/08/31 09:19:40;;;;;;;7.05;4.63;;;;;;;15.85;80.70;102769.03;4875369;29;20055;-88
2021/08/31 09:22:13;;;;;;;10.57;4.32;;;;;;;15.93;80.45;102769.06;4851589;29;20025;-88
2021/08/31 09:24:39;;;;;;;9.18;4.38;;;;;;;15.89;79.88;102756.84;4868375;29;20033;-88
2021/08/31 09:27:05;;;;;;;9.18;4.55;;;;;;;15.89;79.88;102759.56;4877483;29;20028;-88
2021/08/31 09:29:37;;;;;;;7.30;4.55;;;;;;;15.96;79.14;102772.31;4889820;29;20033;-87
2021/08/31 09:32:08;;;;;;;7.83;4.40;;;;;;;15.90;79.33;102764.81;4896023;29;20044;-89
2021/08/31 09:34:44;;;;;;;10.30;4.53;;;;;;;15.92;79.96;102773.66;4869235;29;20107;-88
2021/08/31 09:37:26;;;;;;;10.93;4.63;;;;;;;15.98;79.94;102770.31;4876650;29;20029;-88
2021/08/31 09:40:08;;;;;;;7.43;3.88;;;;;;;15.94;79.33;102770.78;4888808;29;20028;-89
2021/08/31 09:42:35;;;;;;;8.82;4.60;;;;;;;16.00;79.27;102781.81;4865414;29;20028;-88
2021/08/31 09:45:06;;;;;;;10.85;4.55;;;;;;;16.06;79.00;102766.75;4892786;29;20485;-89
2021/08/31 09:47:36;;;;;;;9.48;4.60;;;;;;;16.11;78.72;102767.13;4878590;29;20111;-90
2021/08/31 09:50:06;;;;;;;11.38;5.03;;;;;;;16.17;78.81;102769.19;4880247;29;20385;-90
2021/08/31 09:52:32;;;;;;;9.38;4.60;;;;;;;16.11;78.48;102764.41;4880312;29;20025;-89
2021/08/31 09:55:20;;;;;;;9.10;4.03;;;;;;;16.16;78.19;102780.19;4864800;29;20146;-89
2021/08/31 09:57:45;;;;;;;11.75;4.72;;;;;;;16.21;78.33;102775.97;4865008;29;20059;-90
2021/08/31 10:00:15;;;;;;;9.85;3.90;;;;;;;16.32;77.58;102782.13;4876788;29;20066;-91
2021/08/31 10:02:43;;;;;;;10.32;4.22;;;;;;;16.30;77.74;102774.16;4868272;29;20095;-90
2021/08/31 10:05:09;;;;;;;9.35;3.70;;;;;;;16.32;77.46;102773.97;4898165;29;20028;-88
2021/08/31 10:07:35;;;;;;;8.75;4.25;;;;;;;16.45;77.82;102787.94;4876750;29;20024;-88
2021/08/31 10:10:01;;;;;;;6.78;3.53;;;;;;;16.48;76.99;102785.75;4862403;29;20525;-88
2021/08/31 10:12:29;;;;;;;8.80;3.72;;;;;;;16.49;76.48;102789.31;4865323;29;20029;-89
2021/08/31 10:14:58;;;;;;;6.63;3.53;;;;;;;16.52;76.35;102789.00;4866360;29;20036;-90
2021/08/31 10:17:34;;;;;;;7.47;4.00;;;;;;;16.49;76.09;102786.59;4888099;29;20032;-89
2021/08/31 10:20:01;;;;;;;6.55;4.03;;;;;;;16.55;75.72;102795.97;4859185;29;20521;-88
2021/08/31 10:22:27;;;;;;;5.85;3.60;;;;;;;16.55;75.87;102794.09;4860877;29;20408;-89
2021/08/31 10:24:53;;;;;;;6.75;3.63;;;;;;;16.62;75.91;102802.44;4871427;29;20444;-88
2021/08/31 10:27:36;;;;;;;6.45;3.92;;;;;;;16.69;75.51;102800.72;4882841;29;20024;-89
2021/08/31 10:30:16;;;;;;;8.20;3.95;;;;;;;16.67;75.07;102798.19;4851976;29;20124;-89
2021/08/31 10:33:10;;;;;;;6.43;3.40;;;;;;;16.71;75.38;102802.25;4867667;29;20156;-89
2021/08/31 10:35:45;;;;;;;6.78;2.92;;;;;;;16.79;75.39;102796.03;4867780;29;20028;-89
2021/08/31 10:38:12;;;;;;;5.25;3.10;;;;;;;16.80;75.31;102799.59;4883169;29;20028;-89
2021/08/31 10:40:41;;;;;;;7.28;3.45;;;;;;;16.82;75.36;102803.84;4903082;29;20041;-89
2021/08/31 10:43:11;;;;;;;7.75;3.22;;;;;;;16.81;74.95;102798.59;4863766;29;20202;-89
2021/08/31 10:45:41;;;;;;;6.57;3.22;;;;;;;16.97;74.51;102806.75;4863272;29;20039;-90
2021/08/31 10:48:27;;;;;;;9.65;3.75;;;;;;;17.08;74.17;102794.72;4889809;29;20099;-89
2021/08/31 10:51:04;;;;;;;6.40;3.20;;;;;;;17.11;73.56;102791.66;4882059;29;20079;-89
2021/08/31 10:53:42;;;;;;;7.82;3.08;;;;;;;17.13;72.64;102804.06;4867065;29;20039;-90
2021/08/31 10:56:23;;;;;;;6.53;4.00;;;;;;;17.18;72.44;102805.44;4897943;29;20028;-90
2021/08/31 10:59:31;;;;;;;9.00;3.30;;;;;;;17.26;72.26;102800.81;4866726;29;20445;-89
2021/08/31 11:01:57;;;;;;;4.82;2.40;;;;;;;17.31;71.53;102809.31;4882357;29;20039;-89
2021/08/31 11:04:27;;;;;;;5.78;2.85;;;;;;;17.21;71.53;102805.91;4882006;29;20028;-89
2021/08/31 11:06:57;;;;;;;5.03;2.78;;;;;;;17.20;71.90;102804.22;4866672;29;20087;-89
2021/08/31 11:09:24;;;;;;;6.40;3.17;;;;;;;17.16;70.94;102796.59;4882196;29;20025;-89
2021/08/31 11:12:03;;;;;;;4.38;2.88;;;;;;;17.14;71.86;102800.28;4851210;29;20515;-89
2021/08/31 11:14:44;;;;;;;7.68;3.00;;;;;;;17.30;71.70;102802.16;4866720;29;20035;-89
2021/08/31 11:17:11;;;;;;;5.40;2.90;;;;;;;17.24;71.11;102802.84;4866657;29;20029;-89
2021/08/31 11:19:37;;;;;;;7.63;2.97;;;;;;;17.18;71.11;102795.41;4866555;29;20021;-89
2021/08/31 11:22:02;;;;;;;5.13;2.50;;;;;;;17.15;71.26;102801.19;4866488;29;20036;-89
2021/08/31 11:24:28;;;;;;;6.97;3.00;;;;;;;17.21;71.99;102799.63;4881803;29;20512;-90
2021/08/31 11:26:59;;;;;;;7.90;2.95;;;;;;;17.27;72.07;102805.22;4866171;29;20033;-89